createdAt,value
2022-11-21T00:01:19.593Z,-2.01
2022-11-21T00:03:47.221Z,-1.98
2022-11-21T00:06:14.606Z,-1.95
2022-11-21T00:08:41.373Z,-1.93
2022-11-21T00:11:08.078Z,-1.91
2022-11-21T00:13:35.275Z,-1.93
2022-11-21T00:16:14.010Z,-1.96
2022-11-21T00:18:41.710Z,-1.95
2022-11-21T00:21:11.945Z,-1.93
2022-11-21T00:23:38.649Z,-1.90
2022-11-21T00:26:06.818Z,-1.84
2022-11-21T00:28:34.199Z,-1.76
2022-11-21T00:31:01.323Z,-1.67
2022-11-21T00:33:28.275Z,-1.60
2022-11-21T00:35:54.863Z,-1.60
2022-11-21T00:38:23.965Z,-1.58
2022-11-21T00:40:50.532Z,-1.59
2022-11-21T00:43:16.977Z,-1.60
2022-11-21T00:45:43.586Z,-1.60
2022-11-21T00:48:10.054Z,-1.61
2022-11-21T00:50:36.462Z,-1.63
2022-11-21T00:53:03.012Z,-1.62
2022-11-21T00:55:29.627Z,-1.58
2022-11-21T00:57:56.142Z,-1.53
2022-11-21T01:00:22.845Z,-1.60
2022-11-21T01:02:49.705Z,-1.49
2022-11-21T01:05:16.272Z,-1.48
2022-11-21T01:07:42.891Z,-1.49
2022-11-21T01:10:09.635Z,-1.51
2022-11-21T01:12:36.116Z,-1.52
2022-11-21T01:15:03.202Z,-1.54
2022-11-21T01:17:32.261Z,-1.57
2022-11-21T01:19:58.859Z,-1.59
2022-11-21T01:22:25.466Z,-1.62
2022-11-21T01:24:51.882Z,-1.67
2022-11-21T01:27:18.300Z,-1.72
2022-11-21T01:29:45.159Z,-1.73
2022-11-21T01:32:11.757Z,-1.87
2022-11-21T01:34:38.201Z,-1.81
2022-11-21T01:37:05.092Z,-1.86
2022-11-21T01:39:31.593Z,-1.92
2022-11-21T01:41:58.004Z,-1.97
2022-11-21T01:44:44.720Z,-2.03
2022-11-21T01:47:12.638Z,-2.12
2022-11-21T01:49:40.690Z,-2.18
2022-11-21T01:52:19.330Z,-2.26
2022-11-21T01:54:55.629Z,-2.33
2022-11-21T01:57:31.005Z,-2.42
2022-11-21T02:00:02.475Z,-2.50
2022-11-21T02:02:35.689Z,-2.57
2022-11-21T02:05:06.185Z,-2.60
2022-11-21T02:07:38.385Z,-2.61
2022-11-21T02:10:06.093Z,-2.62
2022-11-21T02:12:57.829Z,-2.64
2022-11-21T02:15:27.900Z,-2.67
2022-11-21T02:17:55.204Z,-2.77
2022-11-21T02:20:27.686Z,-2.84
2022-11-21T02:23:05.109Z,-2.81
2022-11-21T02:25:35.789Z,-2.87
2022-11-21T02:28:06.540Z,-2.94
2022-11-21T02:30:37.633Z,-3.01
2022-11-21T02:33:05.234Z,-3.09
2022-11-21T02:35:33.342Z,-3.16
2022-11-21T02:38:02.341Z,-3.21
2022-11-21T02:40:33.957Z,-3.28
2022-11-21T02:43:21.545Z,-3.34
2022-11-21T02:45:49.314Z,-3.37
2022-11-21T02:48:15.862Z,-3.39
2022-11-21T02:50:45.461Z,-3.38
2022-11-21T02:53:14.999Z,-3.38
2022-11-21T02:55:42.364Z,-3.39
2022-11-21T02:58:09.805Z,-3.43
2022-11-21T03:00:38.057Z,-3.47
2022-11-21T03:03:05.052Z,-3.52
2022-11-21T03:05:31.989Z,-3.57
2022-11-21T03:07:58.424Z,-3.64
2022-11-21T03:10:24.961Z,-3.68
2022-11-21T03:13:00.488Z,-3.73
2022-11-21T03:15:29.490Z,-3.79
2022-11-21T03:17:57.206Z,-3.84
2022-11-21T03:20:24.584Z,-3.88
2022-11-21T03:22:52.879Z,-3.92
2022-11-21T03:25:19.782Z,-3.95
2022-11-21T03:27:46.309Z,-3.95
2022-11-21T03:30:13.144Z,-3.92
2022-11-21T03:32:39.641Z,-3.88
2022-11-21T03:35:06.556Z,-3.83
2022-11-21T03:37:33.172Z,-3.79
2022-11-21T03:39:59.624Z,-3.78
2022-11-21T03:42:26.281Z,-3.79
2022-11-21T03:44:52.873Z,-3.78
2022-11-21T03:47:19.321Z,-3.79
2022-11-21T03:49:45.989Z,-3.81
2022-11-21T03:52:12.587Z,-3.84
2022-11-21T03:54:39.420Z,-3.84
2022-11-21T03:57:05.942Z,-3.85
2022-11-21T03:59:32.475Z,-3.87
2022-11-21T04:01:58.910Z,-3.90
2022-11-21T04:04:25.962Z,-3.87
2022-11-21T04:06:53.056Z,-3.81
2022-11-21T04:09:19.549Z,-3.75
2022-11-21T04:11:46.081Z,-3.72
2022-11-21T04:14:12.602Z,-3.72
2022-11-21T04:16:39.006Z,-3.73
2022-11-21T04:19:05.594Z,-3.76
2022-11-21T04:21:32.125Z,-3.78
2022-11-21T04:23:58.542Z,-3.81
2022-11-21T04:26:25.144Z,-3.85
2022-11-21T04:28:51.958Z,-3.90
2022-11-21T04:31:18.529Z,-3.95
2022-11-21T04:33:45.025Z,-4.01
2022-11-21T04:36:11.449Z,-4.06
2022-11-21T04:38:37.947Z,-4.12
2022-11-21T04:41:04.558Z,-4.18
2022-11-21T04:43:31.144Z,-4.27
2022-11-21T04:45:57.637Z,-4.35
2022-11-21T04:48:24.471Z,-4.38
2022-11-21T04:50:50.934Z,-4.40
2022-11-21T04:53:17.556Z,-4.42
2022-11-21T04:55:44.180Z,-4.64
2022-11-21T04:58:11.153Z,-4.44
2022-11-21T05:00:37.591Z,-4.44
2022-11-21T05:03:05.657Z,-4.44
2022-11-21T05:05:32.804Z,-4.45
2022-11-21T05:07:59.614Z,-4.46
2022-11-21T05:10:26.797Z,-4.48
2022-11-21T05:13:20.594Z,-4.50
2022-11-21T05:15:50.952Z,-4.55
2022-11-21T05:18:20.789Z,-4.61
2022-11-21T05:20:47.355Z,-4.68
2022-11-21T05:23:14.154Z,-4.79
2022-11-21T05:25:40.742Z,-4.87
2022-11-21T05:28:07.292Z,-4.93
2022-11-21T05:30:33.901Z,-4.95
2022-11-21T05:33:00.314Z,-4.91
2022-11-21T05:35:26.749Z,-4.93
2022-11-21T05:37:57.564Z,-5.05
2022-11-21T05:40:25.236Z,-5.07
2022-11-21T05:43:10.615Z,-5.03
2022-11-21T05:45:37.500Z,-5.03
2022-11-21T05:48:07.314Z,-4.99
2022-11-21T05:50:37.268Z,-4.97
2022-11-21T05:53:04.580Z,-4.97
2022-11-21T05:55:33.847Z,-4.99
2022-11-21T05:58:01.392Z,-5.03
2022-11-21T06:00:28.520Z,-5.07
2022-11-21T06:03:14.179Z,-5.09
2022-11-21T06:05:41.020Z,-5.11
2022-11-21T06:08:07.637Z,-5.10
2022-11-21T06:10:34.267Z,-5.08
2022-11-21T06:13:03.353Z,-5.04
2022-11-21T06:15:29.995Z,-5.09
2022-11-21T06:17:59.733Z,-5.07
2022-11-21T06:20:26.261Z,-5.02
2022-11-21T06:22:52.868Z,-5.01
2022-11-21T06:25:19.502Z,-5.01
2022-11-21T06:27:46.161Z,-5.00
2022-11-21T06:30:14.668Z,-5.02
2022-11-21T06:32:44.307Z,-5.03
2022-11-21T06:35:10.985Z,-5.03
2022-11-21T06:37:37.651Z,-5.02
2022-11-21T06:40:04.836Z,-4.97
2022-11-21T06:42:32.261Z,-4.94
2022-11-21T06:44:58.823Z,-4.91
2022-11-21T06:47:25.460Z,-4.85
2022-11-21T06:49:52.182Z,-4.78
2022-11-21T06:52:18.751Z,-4.69
2022-11-21T06:54:45.420Z,-4.57
2022-11-21T06:57:12.279Z,-4.46
2022-11-21T06:59:41.952Z,-4.38
2022-11-21T07:02:14.740Z,-4.31
2022-11-21T07:04:41.674Z,-4.26
2022-11-21T07:07:08.220Z,-4.21
2022-11-21T07:09:35.395Z,-4.18
2022-11-21T07:12:21.591Z,-4.12
2022-11-21T07:14:48.141Z,-4.04
2022-11-21T07:17:15.392Z,-3.98
2022-11-21T07:19:41.858Z,-3.95
2022-11-21T07:22:08.683Z,-3.91
2022-11-21T07:24:35.578Z,-3.92
2022-11-21T07:27:02.375Z,-3.74
2022-11-21T07:29:29.290Z,-3.62
2022-11-21T07:31:56.444Z,-3.48
2022-11-21T07:34:22.865Z,-3.45
2022-11-21T07:36:49.692Z,-3.25
2022-11-21T07:39:16.369Z,-3.16
2022-11-21T07:41:42.898Z,-3.14
2022-11-21T07:44:09.410Z,-3.00
2022-11-21T07:46:36.429Z,-2.89
2022-11-21T07:49:03.671Z,-2.74
2022-11-21T07:51:30.557Z,-2.55
2022-11-21T07:53:57.367Z,-2.34
2022-11-21T07:56:25.860Z,-2.09
2022-11-21T07:58:52.705Z,-1.88
2022-11-21T08:01:19.502Z,-1.57
2022-11-21T08:03:46.171Z,-1.40
2022-11-21T08:06:13.085Z,-1.31
2022-11-21T08:08:39.863Z,-1.26
2022-11-21T08:11:07.286Z,-1.25
2022-11-21T08:13:34.978Z,-1.26
2022-11-21T08:16:03.450Z,-1.26
2022-11-21T08:18:30.478Z,-1.25
2022-11-21T08:20:59.669Z,-1.22
2022-11-21T08:23:26.201Z,-1.18
2022-11-21T08:25:52.735Z,-1.15
2022-11-21T08:28:19.369Z,-1.11
2022-11-21T08:30:46.033Z,-1.01
2022-11-21T08:33:12.527Z,-0.87
2022-11-21T08:35:39.078Z,-0.75
2022-11-21T08:38:06.260Z,-0.66
2022-11-21T08:40:34.020Z,-0.58
2022-11-21T08:43:09.479Z,-0.53
2022-11-21T08:45:37.451Z,-0.48
2022-11-21T08:48:08.210Z,-0.43
2022-11-21T08:50:34.817Z,-0.35
2022-11-21T08:53:02.305Z,-0.30
2022-11-21T08:55:29.667Z,-0.26
2022-11-21T08:57:56.290Z,-0.21
2022-11-21T09:00:23.411Z,-0.14
2022-11-21T09:02:49.985Z,-0.05
2022-11-21T09:05:16.805Z,0.06
2022-11-21T09:07:43.535Z,0.15
2022-11-21T09:10:10.265Z,0.26
2022-11-21T09:12:36.896Z,0.38
2022-11-21T09:15:22.286Z,0.46
2022-11-21T09:18:04.325Z,0.55
2022-11-21T09:20:33.488Z,0.63
2022-11-21T09:23:11.888Z,0.70
2022-11-21T09:25:38.845Z,0.73
2022-11-21T09:28:07.726Z,0.77
2022-11-21T09:30:34.730Z,0.84
2022-11-21T09:33:06.789Z,0.91
2022-11-21T09:35:33.956Z,0.91
2022-11-21T09:38:00.495Z,1.00
2022-11-21T09:40:29.782Z,1.11
2022-11-21T09:43:26.105Z,1.14
2022-11-21T09:46:08.730Z,1.14
2022-11-21T09:48:57.839Z,1.17
2022-11-21T09:51:29.253Z,1.21
2022-11-21T09:54:03.985Z,1.23
2022-11-21T09:56:35.589Z,1.24
2022-11-21T09:59:24.650Z,1.22
2022-11-21T10:01:51.142Z,1.24
2022-11-21T10:04:22.301Z,1.28
2022-11-21T10:07:06.967Z,1.31
2022-11-21T11:03:15.477Z,2.06
2022-11-21T11:05:54.208Z,2.13
2022-11-21T11:08:20.939Z,2.17
2022-11-21T11:11:14.320Z,2.22
2022-11-21T11:13:53.390Z,2.27
2022-11-21T11:16:22.325Z,2.31
2022-11-21T11:19:09.269Z,2.36
2022-11-21T11:21:41.610Z,2.44
2022-11-21T11:24:21.086Z,2.53
2022-11-21T11:26:48.699Z,2.63
2022-11-21T11:29:20.953Z,2.69
2022-11-21T11:32:04.687Z,2.71
2022-11-21T11:34:50.144Z,2.70
2022-11-21T11:37:41.035Z,2.64
2022-11-21T11:40:40.212Z,2.58
2022-11-21T11:43:41.173Z,2.65
2022-11-21T11:47:14.255Z,2.69
2022-11-21T11:50:12.458Z,2.72
2022-11-21T11:52:45.485Z,2.70
2022-11-21T11:55:43.112Z,2.69
2022-11-21T11:58:21.316Z,2.67
2022-11-21T12:00:56.410Z,2.65
2022-11-21T12:03:58.565Z,2.66
2022-11-21T12:07:10.683Z,2.68
2022-11-21T12:09:35.538Z,2.71
2022-11-21T12:12:15.369Z,2.73
2022-11-21T12:15:13.146Z,2.71
2022-11-21T12:17:51.911Z,2.68
2022-11-21T12:20:34.598Z,2.65
2022-11-21T12:23:13.620Z,2.63
2022-11-21T12:26:04.547Z,2.61
2022-11-21T12:28:52.420Z,2.60
2022-11-21T12:31:22.026Z,2.61
2022-11-21T12:34:04.745Z,2.63
2022-11-21T12:36:43.520Z,2.65
2022-11-21T12:39:13.371Z,2.67
2022-11-21T12:42:13.110Z,2.67
2022-11-21T12:44:49.622Z,2.64
2022-11-21T12:47:16.129Z,2.62
2022-11-21T12:50:31.608Z,2.61
2022-11-21T12:53:31.510Z,2.64
2022-11-21T12:56:13.464Z,2.65
2022-11-21T12:58:47.079Z,2.63
2022-11-21T13:01:27.347Z,2.62
2022-11-21T13:04:05.171Z,2.62
2022-11-21T13:06:38.449Z,2.57
2022-11-21T13:09:09.404Z,2.59
2022-11-21T13:11:59.594Z,2.61
2022-11-21T13:14:44.578Z,2.63
2022-11-21T13:17:14.533Z,2.58
2022-11-21T13:20:06.013Z,2.59
2022-11-21T13:22:36.223Z,2.57
2022-11-21T13:25:04.353Z,2.51
2022-11-21T13:27:39.653Z,2.55
2022-11-21T13:30:06.455Z,2.57
2022-11-21T13:32:53.567Z,2.59
2022-11-21T13:35:20.436Z,2.58
2022-11-21T13:38:09.789Z,2.58
2022-11-21T13:40:39.199Z,2.51
2022-11-21T13:45:59.010Z,2.49
2022-11-21T13:48:33.404Z,2.44
2022-11-21T13:51:18.353Z,2.45
2022-11-21T13:54:05.837Z,2.46
2022-11-21T13:57:00.504Z,2.49
2022-11-21T13:59:57.262Z,2.52
2022-11-21T14:03:09.687Z,2.50
2022-11-21T14:06:01.855Z,2.41
2022-11-21T14:08:29.287Z,2.37
2022-11-21T14:10:58.311Z,2.33
2022-11-21T14:13:28.661Z,2.30
2022-11-21T14:16:08.221Z,2.27
2022-11-21T14:18:37.327Z,2.25
2022-11-21T14:21:04.399Z,2.28
2022-11-21T14:23:33.807Z,2.32
2022-11-21T14:26:20.847Z,2.33
2022-11-21T14:28:49.042Z,2.30
2022-11-21T14:31:15.654Z,2.28
2022-11-21T14:33:47.392Z,2.25
2022-11-21T14:36:26.401Z,2.21
2022-11-21T14:39:35.545Z,2.18
2022-11-21T14:41:55.263Z,2.13
2022-11-21T14:44:22.987Z,2.06
2022-11-21T14:46:51.749Z,2.01
2022-11-21T14:49:24.643Z,2.01
2022-11-21T14:52:11.380Z,2.02
2022-11-21T14:57:42.872Z,1.96
2022-11-21T15:00:36.022Z,1.91
2022-11-21T15:03:03.588Z,1.85
2022-11-21T15:06:04.104Z,1.79
2022-11-21T15:11:12.620Z,1.71
2022-11-21T15:14:06.577Z,1.70
2022-11-21T15:16:27.435Z,1.70
2022-11-21T15:18:54.550Z,1.68
2022-11-21T15:21:21.075Z,1.65
2022-11-21T15:23:48.761Z,1.62
2022-11-21T15:26:32.209Z,1.60
2022-11-21T15:29:00.645Z,1.57
2022-11-21T15:31:27.780Z,1.56
2022-11-21T15:37:14.386Z,1.67
2022-11-21T15:39:46.152Z,1.71
2022-11-21T15:42:31.027Z,1.71
2022-11-21T15:44:59.420Z,1.67
2022-11-21T15:47:26.348Z,1.65
2022-11-21T15:49:53.367Z,1.64
2022-11-21T15:52:23.740Z,1.62
2022-11-21T15:54:50.563Z,1.61
2022-11-21T15:57:24.492Z,1.62
2022-11-21T15:59:52.570Z,1.65
2022-11-21T16:02:19.392Z,1.66
2022-11-21T16:04:46.042Z,1.65
2022-11-21T16:07:12.902Z,1.62
2022-11-21T16:09:41.419Z,1.56
2022-11-21T16:12:09.010Z,1.55
2022-11-21T16:14:36.193Z,1.54
2022-11-21T16:17:02.964Z,1.54
2022-11-21T16:19:30.474Z,1.48
2022-11-21T16:21:57.621Z,1.58
2022-11-21T16:24:24.419Z,1.57
2022-11-21T16:26:54.216Z,1.58
2022-11-21T16:29:21.073Z,1.57
2022-11-21T16:31:49.720Z,1.53
2022-11-21T16:34:19.563Z,1.51
2022-11-21T16:36:46.332Z,1.54
2022-11-21T16:39:18.015Z,1.58
2022-11-21T16:41:56.523Z,1.64
2022-11-21T16:44:23.281Z,1.66
2022-11-21T16:46:52.076Z,1.66
2022-11-21T16:49:19.675Z,1.65
2022-11-21T16:51:46.808Z,1.64
2022-11-21T16:54:14.142Z,1.63
2022-11-21T16:56:40.907Z,1.60
2022-11-21T16:59:08.692Z,1.60
2022-11-21T17:01:35.894Z,1.61
2022-11-21T17:04:03.086Z,1.64
2022-11-21T17:06:30.435Z,1.67
2022-11-21T17:09:00.193Z,1.67
2022-11-21T17:11:30.072Z,1.66
2022-11-21T17:14:02.201Z,1.53
2022-11-21T17:16:29.803Z,1.61
2022-11-21T17:18:59.365Z,1.59
2022-11-21T17:21:27.457Z,1.62
2022-11-21T17:23:54.177Z,1.65
2022-11-21T17:26:26.569Z,1.66
2022-11-21T17:28:55.075Z,1.63
2022-11-21T17:31:21.713Z,1.59
2022-11-21T17:33:52.000Z,1.58
2022-11-21T17:36:20.617Z,1.57
2022-11-21T17:38:47.536Z,1.57
2022-11-21T17:41:16.523Z,1.59
2022-11-21T17:43:43.924Z,1.63
2022-11-21T17:46:16.360Z,1.57
2022-11-21T17:48:44.033Z,1.65
2022-11-21T17:51:16.150Z,1.63
2022-11-21T17:53:45.295Z,1.62
2022-11-21T17:56:20.633Z,1.60
2022-11-21T17:58:47.817Z,1.58
2022-11-21T18:01:19.672Z,1.61
2022-11-21T18:03:48.771Z,1.64
2022-11-21T18:06:16.550Z,1.68
2022-11-21T18:08:45.934Z,1.70
2022-11-21T18:11:15.532Z,1.70
2022-11-21T18:13:42.154Z,1.69
2022-11-21T18:16:12.735Z,1.67
2022-11-21T18:18:39.978Z,1.64
2022-11-21T18:21:11.938Z,1.64
2022-11-21T18:23:42.506Z,1.65
2022-11-21T18:26:20.012Z,1.68
2022-11-21T18:28:57.263Z,1.72
2022-11-21T18:31:35.974Z,1.74
2022-11-21T18:34:04.813Z,1.74
2022-11-21T18:36:32.974Z,1.73
2022-11-21T18:39:07.180Z,1.63
2022-11-21T18:41:38.729Z,1.68
2022-11-21T18:44:06.458Z,1.67
2022-11-21T18:46:35.580Z,1.70
2022-11-21T18:49:06.231Z,1.74
2022-11-21T18:51:34.568Z,1.75
2022-11-21T18:54:07.538Z,1.74
2022-11-21T18:56:39.040Z,1.63
2022-11-21T18:59:06.664Z,1.71
2022-11-21T19:01:39.267Z,1.70
2022-11-21T19:04:06.032Z,1.73
2022-11-21T19:06:32.934Z,1.77
2022-11-21T19:08:59.629Z,1.78
2022-11-21T19:11:29.948Z,1.77
2022-11-21T19:13:59.841Z,1.76
2022-11-21T19:16:30.385Z,1.77
2022-11-21T19:19:32.587Z,1.76
2022-11-21T19:21:47.013Z,1.86
2022-11-21T19:24:14.920Z,1.87
2022-11-21T19:26:42.572Z,1.88
2022-11-21T19:29:15.641Z,1.88
2022-11-21T19:31:45.573Z,1.88
2022-11-21T19:34:14.499Z,1.88
2022-11-21T19:36:43.807Z,1.91
2022-11-21T19:39:10.665Z,1.96
2022-11-21T19:41:37.674Z,2.02
2022-11-21T19:44:04.542Z,2.04
2022-11-21T19:46:34.447Z,2.04
2022-11-21T19:49:01.629Z,2.04
2022-11-21T19:51:32.173Z,1.99
2022-11-21T19:54:01.482Z,2.01
2022-11-21T19:56:28.216Z,1.90
2022-11-21T19:58:57.258Z,2.00
2022-11-21T20:01:29.279Z,2.00
2022-11-21T20:03:58.622Z,2.03
2022-11-21T20:06:30.430Z,2.03
2022-11-21T20:09:20.394Z,2.02
2022-11-21T20:11:49.958Z,2.01
2022-11-21T20:14:21.945Z,1.98
2022-11-21T20:16:51.025Z,1.97
2022-11-21T20:19:19.439Z,1.96
2022-11-21T20:21:46.397Z,1.96
2022-11-21T20:24:13.781Z,1.91
2022-11-21T20:26:41.267Z,2.03
2022-11-21T20:29:09.529Z,2.07
2022-11-21T20:31:37.056Z,2.09
2022-11-21T20:34:06.610Z,2.08
2022-11-21T20:36:36.010Z,2.07
2022-11-21T20:39:14.463Z,2.06
2022-11-21T20:41:41.101Z,2.04
2022-11-21T20:47:05.042Z,1.96
2022-11-21T20:49:32.745Z,1.97
2022-11-21T20:54:47.037Z,2.01
2022-11-21T20:57:15.472Z,2.04
2022-11-21T20:59:42.833Z,2.06
2022-11-21T21:02:13.340Z,2.07
2022-11-21T21:04:39.996Z,1.97
2022-11-21T21:07:06.676Z,2.03
2022-11-21T21:09:33.623Z,1.99
2022-11-21T21:12:00.161Z,1.99
2022-11-21T21:14:27.142Z,2.00
2022-11-21T21:16:54.306Z,2.03
2022-11-21T21:19:21.270Z,2.05
2022-11-21T21:21:47.835Z,2.04
2022-11-21T21:24:15.171Z,2.03
2022-11-21T21:26:44.341Z,2.01
2022-11-21T21:29:13.223Z,1.98
2022-11-21T21:31:43.827Z,1.94
2022-11-21T21:34:13.541Z,1.98
2022-11-21T21:36:39.999Z,1.99
2022-11-21T21:39:06.944Z,2.00
2022-11-21T21:41:33.610Z,1.87
2022-11-21T21:44:00.553Z,2.01
2022-11-21T21:46:27.888Z,2.01
2022-11-21T21:48:56.413Z,1.99
2022-11-21T21:51:27.238Z,1.96
2022-11-21T21:53:56.337Z,1.94
2022-11-21T21:56:24.611Z,1.95
2022-11-21T21:58:51.969Z,1.98
2022-11-21T22:01:21.886Z,2.02
2022-11-21T22:03:52.549Z,1.99
2022-11-21T22:06:19.022Z,2.06
2022-11-21T22:08:47.973Z,2.05
2022-11-21T22:11:23.783Z,2.04
2022-11-21T22:13:56.258Z,2.04
2022-11-21T22:16:23.311Z,2.02
2022-11-21T22:18:50.508Z,2.01
2022-11-21T22:21:22.913Z,2.05
2022-11-21T22:24:22.940Z,2.09
2022-11-21T22:26:37.589Z,2.14
2022-11-21T22:29:04.373Z,2.07
2022-11-21T22:31:31.246Z,2.14
2022-11-21T22:33:58.520Z,2.13
2022-11-21T22:36:26.335Z,2.10
2022-11-21T22:38:54.220Z,2.10
2022-11-21T22:41:23.552Z,2.14
2022-11-21T22:43:59.732Z,2.18
2022-11-21T22:46:31.690Z,2.20
2022-11-21T22:48:58.857Z,2.20
2022-11-21T22:51:29.068Z,2.18
2022-11-21T22:53:56.084Z,2.17
2022-11-21T22:56:24.100Z,2.14
2022-11-21T22:58:51.058Z,2.12
2022-11-21T23:01:24.126Z,2.14
2022-11-21T23:03:51.820Z,2.14
2022-11-21T23:06:20.890Z,2.14
2022-11-21T23:08:48.230Z,2.16
2022-11-21T23:11:18.975Z,2.18
2022-11-21T23:13:47.166Z,2.18
2022-11-21T23:16:22.886Z,2.17
2022-11-21T23:18:52.957Z,2.16
2022-11-21T23:21:20.783Z,2.18
2022-11-21T23:23:47.714Z,2.19
2022-11-21T23:26:15.073Z,2.19
2022-11-21T23:28:42.582Z,2.20
2022-11-21T23:31:10.165Z,2.22
2022-11-21T23:33:36.907Z,2.22
2022-11-21T23:36:03.943Z,2.22
2022-11-21T23:38:30.729Z,2.20
2022-11-21T23:40:57.668Z,2.19
2022-11-21T23:43:24.524Z,2.17
2022-11-21T23:45:52.925Z,2.17
2022-11-21T23:48:20.752Z,2.17
2022-11-21T23:50:49.758Z,2.17
2022-11-21T23:53:16.851Z,2.20
2022-11-21T23:55:43.950Z,2.13
2022-11-21T23:58:11.471Z,2.22
